Terminal Aerodrome Forecast
Issued by NWS Jacksonville, FL

Home | Current Version | Previous Version | Text Only | Print | Product List | Glossary On
Versions: 1 2 3 4 5 6 7 8 9 10 11 12 13 14 15 16 17 18
000
FTUS42 KJAX 260709 AAA
TAFJAX
TAF AMD
KJAX 260709Z 2607/2706 21008KT P6SM -SHRA BKN035 OVC250
     FM261000 24007KT P6SM VCSH OVC025
     FM261300 27014G22KT P6SM SCT060 SCT250
     FM261700 28019G26KT P6SM SCT040
     FM270000 28014KT P6SM SKC=

USA.gov is the U.S. government's official web portal to all federal, state and local government web resources and services.